Sulphur Springs, Arkansas
Current Conditions -  °F | °C
As of 1:55 AM on Wednesday 26 Nov 2014 (Local Time) from KVBT Reporting Station
Clear Clear  
Wind Chill: 32°   Ceiling: Unl
Heat Index: 32°   Visibility: 10mi
Dew Point: 21°   Wind: 3mph
Humidity: 64%   Direction: 160°SSE
Pressure: 30.03"   Gusts: NA
Location:  36.48°N, 94.46°W
Report Text: KVBT 260755Z AUTO 16003KT 10SM CLR 00/M06 A3003 RMK AO1
Loading
Personal Weather Stations






























Interactive Weather Map New forecast layout! Learn more

10-Day Weather Forecast

Advertisements
Track Severe Weather on mobile